Time;durP1;ratioP1;P1;durP2;ratioP2;P2;SDS_P1;SDS_P2;PMS_P1;PMS_P2;Temp;Humidity;BMP_temperature;BMP_pressure;BME280_temperature;BME280_humidity;BME280_pressure;Samples;Min_cycle;Max_cycle;Signal;HPM_P1;HPM_P2
2022/03/18 00:00:28;;;;;;;10.80;4.93;;;-2.90;65.60;-3.90;101164.00;;;;4898273;28;88781;-59
2022/03/18 00:02:55;;;;;;;10.05;5.32;;;-3.00;65.60;-4.00;101158.00;;;;4897954;28;88583;-59
2022/03/18 00:05:24;;;;;;;18.58;5.40;;;-3.20;66.20;-4.20;101154.00;;;;4903550;28;88009;-60
2022/03/18 00:07:52;;;;;;;13.15;4.78;;;-3.30;66.80;-4.30;101154.00;;;;4891356;28;87030;-60
2022/03/18 00:10:19;;;;;;;16.42;5.35;;;-3.30;67.30;-4.30;101148.00;;;;4891989;28;87505;-60
2022/03/18 00:12:47;;;;;;;11.65;5.13;;;-3.40;67.80;-4.40;101153.00;;;;4888105;28;87990;-60
2022/03/18 00:15:15;;;;;;;13.90;5.07;;;-3.40;69.00;-4.20;101144.00;;;;4886805;28;87137;-60
2022/03/18 00:17:43;;;;;;;11.88;5.07;;;-3.10;67.50;-4.00;101142.00;;;;4905535;28;87338;-60
2022/03/18 00:20:12;;;;;;;13.93;5.13;;;-3.00;66.60;-3.90;101142.00;;;;4897726;28;88810;-60
2022/03/18 00:22:44;;;;;;;12.32;5.57;;;-2.80;66.50;-3.80;101143.00;;;;4887609;28;87431;-60
2022/03/18 00:25:12;;;;;;;11.98;5.13;;;-2.90;66.90;-3.80;101140.00;;;;4887877;28;87366;-60
2022/03/18 00:27:42;;;;;;;15.05;5.00;;;-2.90;67.10;-3.80;101136.00;;;;4891379;28;86925;-60
2022/03/18 00:30:16;;;;;;;10.73;5.27;;;-2.80;66.40;-3.80;101150.00;;;;4904608;28;90098;-60
2022/03/18 00:32:44;;;;;;;14.02;5.30;;;-2.80;67.20;-3.70;101149.00;;;;4896259;28;89503;-60
2022/03/18 00:35:11;;;;;;;15.52;5.28;;;-2.80;67.30;-3.70;101144.00;;;;4893827;28;87338;-60
2022/03/18 00:37:38;;;;;;;13.23;5.28;;;-2.80;66.80;-3.80;101155.00;;;;4903396;28;87008;-60
2022/03/18 00:40:06;;;;;;;12.45;5.45;;;-2.80;67.30;-3.80;101146.00;;;;4896415;28;89074;-60
2022/03/18 00:42:33;;;;;;;13.13;5.72;;;-2.90;68.10;-3.90;101151.00;;;;4889468;28;87452;-60
2022/03/18 00:45:01;;;;;;;14.38;5.63;;;-3.00;68.40;-3.90;101145.00;;;;4887681;28;87102;-60
2022/03/18 00:52:58;;;;;;;10.55;5.25;;;-2.90;67.70;-3.80;101154.00;;;;4885176;28;88673;-60
2022/03/18 00:55:26;;;;;;;13.18;5.80;;;-2.90;67.90;-3.80;101134.00;;;;4897239;28;88232;-60
2022/03/18 00:57:52;;;;;;;16.73;4.97;;;-2.90;68.00;-3.80;101142.00;;;;4880026;28;87317;-60
2022/03/18 01:00:18;;;;;;;13.85;5.18;;;-2.90;68.00;-3.90;101150.00;;;;4890505;28;87565;-60
2022/03/18 01:02:44;;;;;;;10.50;4.70;;;-3.00;68.50;-4.00;101137.00;;;;4899553;28;87434;-60
2022/03/18 01:05:10;;;;;;;13.10;5.22;;;-3.10;68.70;-4.10;101152.00;;;;4904130;28;86971;-60
2022/03/18 01:07:37;;;;;;;12.18;5.10;;;-3.10;69.60;-4.10;101146.00;;;;4888676;28;87390;-60
2022/03/18 01:10:04;;;;;;;13.20;5.88;;;-3.20;70.20;-4.20;101140.00;;;;4891239;28;88139;-60
2022/03/18 01:12:30;;;;;;;11.63;5.45;;;-3.30;70.50;-4.30;101129.00;;;;4889823;28;88171;-60
2022/03/18 01:14:56;;;;;;;15.30;4.93;;;-3.40;70.80;-4.40;101144.00;;;;4888050;28;86955;-60
2022/03/18 01:17:22;;;;;;;15.85;5.85;;;-3.50;71.30;-4.50;101162.00;;;;4891330;28;87023;-59
2022/03/18 01:19:49;;;;;;;13.15;6.15;;;-3.60;71.70;-4.60;101148.00;;;;4887469;28;88524;-60
2022/03/18 01:22:15;;;;;;;14.50;6.53;;;-3.70;72.60;-4.70;101146.00;;;;4883370;28;88303;-60
2022/03/18 01:24:41;;;;;;;15.98;6.05;;;-3.70;72.80;-4.70;101154.00;;;;4888101;28;87033;-60
2022/03/18 01:27:08;;;;;;;14.82;6.60;;;-3.70;73.70;-4.70;101162.00;;;;4901555;28;87056;-60
2022/03/18 01:29:34;;;;;;;13.05;5.90;;;-3.70;73.80;-4.60;101166.00;;;;4894013;28;87638;-60
2022/03/18 01:32:01;;;;;;;13.38;5.97;;;-3.60;73.90;-4.50;101172.00;;;;4872351;28;87912;-60
2022/03/18 01:34:27;;;;;;;13.68;6.05;;;-3.60;73.50;-4.50;101168.00;;;;4884097;28;87417;-60
2022/03/18 01:36:53;;;;;;;12.98;6.03;;;-3.60;73.90;-4.50;101171.00;;;;4895090;28;86697;-60
2022/03/18 01:39:22;;;;;;;17.08;6.00;;;-3.50;73.40;-4.40;101175.00;;;;4896066;28;87648;-60
2022/03/18 01:41:50;;;;;;;13.98;5.80;;;-3.50;73.20;-4.40;101174.00;;;;4892340;28;87961;-60
2022/03/18 01:44:18;;;;;;;13.32;5.72;;;-3.50;73.00;-4.40;101183.00;;;;4893042;28;88080;-60
2022/03/18 01:46:44;;;;;;;11.48;5.85;;;-3.50;73.40;-4.40;101188.00;;;;4893893;28;87248;-60
2022/03/18 01:49:10;;;;;;;15.68;6.18;;;-3.50;74.00;-4.40;101175.00;;;;4899545;28;88778;-60
2022/03/18 01:51:36;;;;;;;15.00;6.57;;;-3.40;73.30;-4.30;101173.00;;;;4866671;29;88449;-60
2022/03/18 01:56:49;;;;;;;13.88;5.28;;;-3.40;73.10;-4.20;101165.00;;;;4878344;28;87113;-61
2022/03/18 01:59:16;;;;;;;11.32;5.00;;;-3.30;71.90;-4.10;101179.00;;;;4884381;28;88787;-60
2022/03/18 02:01:42;;;;;;;14.38;5.60;;;-3.20;72.00;-4.20;101179.00;;;;4894516;28;88463;-60
2022/03/18 02:04:10;;;;;;;9.90;4.78;;;-3.20;72.20;-4.10;101180.00;;;;4895238;28;87376;-60
2022/03/18 02:06:37;;;;;;;12.27;4.90;;;-3.20;71.60;-4.10;101188.00;;;;4893850;28;87031;-60
2022/03/18 02:09:03;;;;;;;11.30;5.40;;;-3.30;71.80;-4.10;101185.00;;;;4889028;28;88503;-60
2022/03/18 02:11:30;;;;;;;12.60;5.18;;;-3.30;71.90;-4.20;101175.00;;;;4886710;28;88802;-59
2022/03/18 02:13:59;;;;;;;9.80;4.60;;;-3.30;71.90;-4.20;101176.00;;;;4891487;28;86897;-61
2022/03/18 02:16:25;;;;;;;10.13;4.80;;;-3.30;71.70;-4.10;101174.00;;;;4892867;28;87096;-59
2022/03/18 02:18:51;;;;;;;11.15;5.18;;;-3.20;71.50;-4.20;101173.00;;;;4901507;28;88780;-60
2022/03/18 02:21:18;;;;;;;8.45;4.95;;;-3.30;71.90;-4.20;101173.00;;;;4897161;28;87067;-60
2022/03/18 02:23:44;;;;;;;9.35;4.03;;;-3.20;71.70;-4.10;101177.00;;;;4858460;28;87458;-59
2022/03/18 02:26:15;;;;;;;9.10;4.40;;;-3.20;71.20;-4.00;101175.00;;;;4893171;28;86986;-59
2022/03/18 02:28:42;;;;;;;9.65;4.50;;;-3.10;70.70;-4.00;101176.00;;;;4903643;28;87779;-59
2022/03/18 02:31:08;;;;;;;8.43;4.50;;;-3.10;70.40;-4.00;101176.00;;;;4902710;28;87249;-61
2022/03/18 02:33:34;;;;;;;8.13;4.40;;;-3.10;70.70;-4.00;101177.00;;;;4894577;28;88264;-60
2022/03/18 02:36:00;;;;;;;10.98;4.80;;;-3.20;70.30;-4.10;101176.00;;;;4898999;28;87133;-59
2022/03/18 02:38:27;;;;;;;6.47;3.97;;;-3.30;71.10;-4.10;101185.00;;;;4896662;28;87814;-60
2022/03/18 02:40:53;;;;;;;8.10;4.30;;;-3.30;71.00;-4.10;101170.00;;;;4890081;28;87854;-59
2022/03/18 02:43:19;;;;;;;11.38;4.63;;;-3.30;71.00;-4.10;101189.00;;;;4893212;28;87039;-59
2022/03/18 02:45:45;;;;;;;7.47;4.13;;;-3.30;70.80;-4.10;101193.00;;;;4897302;28;88982;-59
2022/03/18 02:48:12;;;;;;;9.77;4.15;;;-3.30;70.70;-4.10;101191.00;;;;4892814;28;89797;-58
2022/03/18 02:50:38;;;;;;;8.55;4.38;;;-3.20;70.00;-4.00;101184.00;;;;4890896;28;87439;-59
2022/03/18 02:53:04;;;;;;;11.32;4.68;;;-3.10;70.00;-4.10;101192.00;;;;4894391;28;87298;-58
2022/03/18 02:55:30;;;;;;;11.35;3.80;;;-3.30;70.60;-4.20;101191.00;;;;4895190;28;87359;-61
2022/03/18 02:57:56;;;;;;;10.43;4.35;;;-3.30;70.10;-4.20;101188.00;;;;4893441;28;88705;-59
2022/03/18 03:00:25;;;;;;;9.45;4.00;;;-3.30;70.10;-4.10;101191.00;;;;4890465;28;88302;-60
2022/03/18 03:02:52;;;;;;;8.60;3.63;;;-3.30;70.00;-4.20;101186.00;;;;4892472;28;87027;-59
2022/03/18 03:08:03;;;;;;;8.98;4.40;;;-3.30;69.90;-4.20;101187.00;;;;4892616;28;87072;-61
2022/03/18 03:10:36;;;;;;;7.55;4.07;;;-3.30;70.30;-4.20;101188.00;;;;4899244;28;87382;-59
2022/03/18 03:13:06;;;;;;;9.75;5.13;;;-3.40;71.10;-4.30;101181.00;;;;4894193;28;87005;-59
2022/03/18 03:15:33;;;;;;;10.65;4.47;;;-3.40;71.60;-4.30;101189.00;;;;4894535;28;86843;-59
2022/03/18 03:17:59;;;;;;;9.48;4.40;;;-3.40;72.30;-4.40;101193.00;;;;4884469;28;87853;-59
2022/03/18 03:20:26;;;;;;;10.40;4.82;;;-3.50;72.80;-4.40;101199.00;;;;4886735;28;88531;-59
2022/03/18 03:22:52;;;;;;;10.68;4.55;;;-3.50;73.20;-4.50;101196.00;;;;4893478;28;88431;-59
2022/03/18 03:25:18;;;;;;;9.00;4.78;;;-3.60;73.90;-4.50;101197.00;;;;4883919;28;87666;-59
2022/03/18 03:27:44;;;;;;;10.90;4.82;;;-3.60;73.90;-4.50;101198.00;;;;4899654;28;86937;-60
2022/03/18 03:30:12;;;;;;;14.70;4.90;;;-3.60;73.90;-4.50;101206.00;;;;4903006;28;88456;-59
2022/03/18 03:32:38;;;;;;;9.07;3.95;;;-3.70;73.80;-4.50;101207.00;;;;4901347;28;87259;-58
2022/03/18 03:35:06;;;;;;;7.90;4.22;;;-3.70;72.90;-4.60;101199.00;;;;4885502;28;87063;-59
2022/03/18 03:37:33;;;;;;;8.82;3.80;;;-3.70;72.10;-4.60;101202.00;;;;4884873;28;88967;-59
2022/03/18 03:39:59;;;;;;;8.52;4.65;;;-3.70;71.60;-4.60;101195.00;;;;4885274;28;88545;-60
2022/03/18 03:42:25;;;;;;;7.18;4.22;;;-3.70;71.30;-4.60;101193.00;;;;4883267;28;87356;-59
2022/03/18 03:44:52;;;;;;;9.50;4.70;;;-3.70;71.60;-4.60;101197.00;;;;4901425;28;87330;-59
2022/03/18 03:47:18;;;;;;;9.88;4.30;;;-3.70;71.60;-4.50;101198.00;;;;4893904;28;89500;-59
2022/03/18 03:49:44;;;;;;;8.55;3.70;;;-3.70;72.00;-4.20;101183.00;;;;4892828;28;88203;-59
2022/03/18 03:52:11;;;;;;;7.20;3.92;;;-3.50;71.30;-3.80;101183.00;;;;4887199;28;86970;-58
2022/03/18 03:54:38;;;;;;;6.53;3.88;;;-3.30;71.10;-3.50;101197.00;;;;4885305;28;87506;-58
2022/03/18 03:57:05;;;;;;;7.95;3.97;;;-3.20;70.60;-3.20;101196.00;;;;4892252;28;87015;-61
2022/03/18 03:59:31;;;;;;;8.43;4.45;;;-3.00;70.40;-3.00;101180.00;;;;4883998;28;87947;-60
2022/03/18 04:01:58;;;;;;;10.65;4.30;;;-3.00;70.30;-2.80;101189.00;;;;4890085;28;87557;-60
2022/03/18 04:04:27;;;;;;;8.23;4.45;;;-2.90;70.20;-2.70;101183.00;;;;4895740;28;86271;-61
2022/03/18 04:06:54;;;;;;;8.38;3.80;;;-2.80;70.10;-2.60;101195.00;;;;4883535;28;87912;-61
2022/03/18 04:09:20;;;;;;;6.80;4.05;;;-2.70;69.70;-2.50;101187.00;;;;4896088;28;87687;-61
2022/03/18 04:11:47;;;;;;;7.00;3.90;;;-2.70;69.30;-2.30;101181.00;;;;4893784;28;87833;-60
2022/03/18 04:14:13;;;;;;;7.93;4.30;;;-2.60;69.50;-2.20;101187.00;;;;4901409;28;87345;-60
2022/03/18 04:16:40;;;;;;;10.75;4.15;;;-2.60;69.90;-2.10;101198.00;;;;4885496;28;87556;-60
2022/03/18 04:19:06;;;;;;;6.38;3.50;;;-2.50;69.80;-2.10;101188.00;;;;4902444;28;88331;-60
2022/03/18 04:21:32;;;;;;;10.60;4.30;;;-2.40;69.60;-2.00;101199.00;;;;4896211;28;87444;-59
2022/03/18 04:23:58;;;;;;;7.47;3.60;;;-2.40;69.60;-2.00;101196.00;;;;4891004;28;87199;-59
2022/03/18 04:26:25;;;;;;;8.65;3.88;;;-2.40;69.60;-1.70;101189.00;;;;4894308;28;88668;-59
2022/03/18 04:28:51;;;;;;;7.80;4.40;;;-2.30;69.70;-1.70;101192.00;;;;4894485;28;87313;-59
2022/03/18 04:31:19;;;;;;;7.10;3.88;;;-2.30;69.70;-1.60;101183.00;;;;4897484;28;87597;-60
2022/03/18 04:33:45;;;;;;;7.93;4.13;;;-2.20;69.80;-1.70;101183.00;;;;4895398;28;87106;-59
2022/03/18 04:36:12;;;;;;;7.38;4.30;;;-2.30;69.80;-1.60;101190.00;;;;4893883;28;89608;-61
2022/03/18 04:38:38;;;;;;;10.60;4.75;;;-2.20;69.80;-1.50;101191.00;;;;4895459;28;89276;-60
2022/03/18 04:41:04;;;;;;;8.25;4.70;;;-2.20;69.80;-1.70;101191.00;;;;4893279;28;87579;-61
2022/03/18 04:43:30;;;;;;;8.43;4.72;;;-2.30;69.80;-1.60;101183.00;;;;4893578;28;87069;-60
2022/03/18 04:45:57;;;;;;;9.07;4.30;;;-2.20;69.80;-1.40;101187.00;;;;4886771;28;88864;-61
2022/03/18 04:48:23;;;;;;;8.65;4.60;;;-2.10;69.90;-1.30;101194.00;;;;4891591;28;88852;-61
2022/03/18 04:50:49;;;;;;;8.75;5.25;;;-2.00;70.00;-1.20;101187.00;;;;4880103;28;87263;-61
2022/03/18 04:53:15;;;;;;;8.55;5.03;;;-2.00;69.70;-1.30;101194.00;;;;4896355;28;86353;-60
2022/03/18 04:55:42;;;;;;;8.25;4.90;;;-2.00;70.00;-1.20;101198.00;;;;4902686;28;87545;-60
2022/03/18 04:58:08;;;;;;;9.73;5.10;;;-1.90;70.00;-1.10;101199.00;;;;4896161;28;88545;-61
2022/03/18 05:00:35;;;;;;;7.95;4.75;;;-1.90;70.10;-1.20;101208.00;;;;4890195;28;88278;-60
2022/03/18 05:03:03;;;;;;;9.05;4.82;;;-1.90;69.70;-1.20;101198.00;;;;4896942;28;86923;-61
2022/03/18 05:05:30;;;;;;;11.10;4.82;;;-1.90;69.90;-1.10;101209.00;;;;4904553;28;88682;-61
2022/03/18 05:07:58;;;;;;;14.23;4.72;;;-1.80;69.40;-1.20;101219.00;;;;4902695;28;87263;-60
2022/03/18 05:10:25;;;;;;;7.80;4.70;;;-1.80;69.40;-1.20;101217.00;;;;4899488;28;87295;-60
2022/03/18 05:12:52;;;;;;;8.75;4.70;;;-1.70;69.30;-1.30;101218.00;;;;4891721;28;87215;-60
2022/03/18 05:15:19;;;;;;;9.48;4.32;;;-1.80;68.80;-1.90;101223.00;;;;4894388;28;88199;-60
2022/03/18 05:17:51;;;;;;;12.85;5.20;;;-1.90;69.00;-2.30;101212.00;;;;4894995;28;86627;-60
2022/03/18 05:20:18;;;;;;;12.43;5.28;;;-2.00;69.50;-2.50;101213.00;;;;4898367;28;86965;-60
2022/03/18 05:22:45;;;;;;;8.65;4.72;;;-2.10;69.30;-2.60;101217.00;;;;4885682;28;87597;-60
2022/03/18 05:25:13;;;;;;;7.95;5.15;;;-2.10;69.90;-2.70;101219.00;;;;4889786;28;88116;-62
2022/03/18 05:27:44;;;;;;;12.00;5.15;;;-2.10;69.60;-2.80;101216.00;;;;4892665;28;89416;-60
2022/03/18 05:30:15;;;;;;;8.83;5.17;;;-2.20;69.60;-2.80;101219.00;;;;4885080;28;87091;-60
2022/03/18 05:32:42;;;;;;;;;;;-2.20;69.70;-2.80;101207.00;;;;4896756;28;87258;-63
2022/03/18 05:35:10;;;;;;;8.75;4.90;;;-2.20;69.80;-2.80;101204.00;;;;4895541;28;88640;-62
2022/03/18 05:37:37;;;;;;;10.25;5.70;;;-2.20;69.80;-2.80;101197.00;;;;4889567;28;88449;-62
2022/03/18 05:40:03;;;;;;;12.05;5.60;;;-2.10;69.90;-2.80;101211.00;;;;4883539;28;87287;-63
2022/03/18 05:42:30;;;;;;;9.43;5.75;;;-2.20;69.90;-2.70;101213.00;;;;4892259;28;86377;-61
2022/03/18 05:44:57;;;;;;;12.05;5.35;;;-2.10;70.10;-2.70;101200.00;;;;4881461;28;88698;-62
2022/03/18 05:47:23;;;;;;;11.68;5.93;;;-2.10;69.50;-2.60;101213.00;;;;4893963;28;88282;-63
2022/03/18 05:49:50;;;;;;;12.40;6.20;;;-2.00;70.00;-2.60;101208.00;;;;4892435;28;88408;-63
2022/03/18 05:52:16;;;;;;;12.73;5.72;;;-2.00;70.00;-2.50;101214.00;;;;4882541;28;87372;-63
2022/03/18 05:54:43;;;;;;;14.48;6.35;;;-2.00;69.50;-2.50;101214.00;;;;4885330;28;87939;-62
2022/03/18 05:57:10;;;;;;;11.63;6.13;;;-2.00;70.10;-2.50;101200.00;;;;4892882;28;89229;-62
2022/03/18 05:59:36;;;;;;;14.02;6.10;;;-1.90;69.30;-2.40;101217.00;;;;4897158;28;87255;-62
2022/03/18 06:02:03;;;;;;;14.40;6.07;;;-1.90;69.40;-2.40;101210.00;;;;4880807;28;87584;-62
2022/03/18 06:04:31;;;;;;;9.60;6.10;;;-1.80;68.70;-2.40;101209.00;;;;4893896;28;87624;-63
2022/03/18 06:06:58;;;;;;;12.15;5.32;;;-1.80;68.40;-2.30;101209.00;;;;4889083;28;87194;-63
2022/03/18 06:12:12;;;;;;;12.85;6.15;;;-1.70;68.40;-2.20;101203.00;;;;4892975;28;87402;-62
2022/03/18 06:14:38;;;;;;;10.43;5.45;;;-1.60;68.40;-2.10;101209.00;;;;4893668;28;88655;-62
2022/03/18 06:17:05;;;;;;;8.73;5.20;;;-1.60;68.30;-2.20;101216.00;;;;4892168;28;88174;-62
2022/03/18 06:19:32;;;;;;;13.98;6.45;;;-1.70;68.00;-2.20;101212.00;;;;4893569;28;87535;-63
2022/03/18 06:22:00;;;;;;;11.82;5.35;;;-1.60;68.00;-2.10;101211.00;;;;4888509;28;87030;-61
2022/03/18 06:24:26;;;;;;;12.95;6.20;;;-1.50;69.00;-2.00;101212.00;;;;4882102;28;88038;-62
2022/03/18 06:26:53;;;;;;;17.45;6.70;;;-1.40;68.10;-1.90;101210.00;;;;4890450;28;87247;-61
2022/03/18 06:29:21;;;;;;;10.20;4.95;;;-1.30;68.50;-1.90;101204.00;;;;4878934;28;87074;-62
2022/03/18 06:31:48;;;;;;;12.60;6.07;;;-1.30;67.80;-1.80;101195.00;;;;4899178;28;86288;-62
2022/03/18 06:34:15;;;;;;;19.75;6.72;;;-1.30;68.10;-1.70;101205.00;;;;4884869;28;88324;-62
2022/03/18 06:36:42;;;;;;;15.68;5.68;;;-1.20;68.50;-1.70;101200.00;;;;4884318;28;88623;-62
2022/03/18 06:39:08;;;;;;;11.40;5.88;;;-1.20;68.00;-1.70;101198.00;;;;4881865;28;88104;-61
2022/03/18 06:41:36;;;;;;;13.10;6.05;;;-1.20;68.20;-1.60;101210.00;;;;4891126;28;87036;-62
2022/03/18 06:44:02;;;;;;;12.05;6.00;;;-1.10;68.40;-1.50;101204.00;;;;4892695;28;87673;-62
2022/03/18 06:46:28;;;;;;;16.85;5.80;;;-1.00;67.90;-1.50;101194.00;;;;4893779;28;87320;-62
2022/03/18 06:48:57;;;;;;;9.13;5.63;;;-0.90;68.00;-1.50;101197.00;;;;4891679;28;87068;-62
2022/03/18 06:51:27;;;;;;;20.23;5.85;;;-1.00;67.80;-1.40;101201.00;;;;4878578;28;87119;-63
2022/03/18 06:54:04;;;;;;;13.77;5.72;;;-1.00;67.70;-1.40;101195.00;;;;4884003;28;90276;-63
2022/03/18 06:56:31;;;;;;;14.60;5.85;;;-0.90;67.80;-1.40;101197.00;;;;4884721;28;87750;-63
2022/03/18 06:58:57;;;;;;;14.75;6.10;;;-0.90;68.00;-1.20;101188.00;;;;4892653;28;87026;-62
2022/03/18 07:01:24;;;;;;;12.57;5.55;;;-0.70;68.10;-1.20;101183.00;;;;4893296;28;87001;-62
2022/03/18 07:03:51;;;;;;;15.63;6.13;;;-0.80;68.00;-1.30;101176.00;;;;4890257;28;88644;-62
2022/03/18 07:06:17;;;;;;;13.55;6.40;;;-0.80;68.00;-1.20;101183.00;;;;4894261;28;88341;-62
2022/03/18 07:08:44;;;;;;;12.23;5.40;;;-0.70;68.40;-1.10;101178.00;;;;4893555;28;87580;-62
2022/03/18 07:11:13;;;;;;;13.48;6.15;;;-0.60;68.10;-1.00;101174.00;;;;4892243;28;87524;-61
2022/03/18 07:13:43;;;;;;;11.75;5.68;;;-0.60;67.90;-1.00;101181.00;;;;4883775;28;87495;-61
2022/03/18 07:18:55;;;;;;;11.60;5.63;;;-0.40;68.00;-0.80;101186.00;;;;4891221;28;87057;-61
2022/03/18 07:21:21;;;;;;;15.77;5.80;;;-0.40;67.40;-0.70;101173.00;;;;4888412;28;86440;-62
2022/03/18 07:23:47;;;;;;;15.60;5.90;;;-0.20;67.90;-0.50;101180.00;;;;4890277;28;87469;-62
2022/03/18 07:26:14;;;;;;;13.02;5.53;;;-0.10;67.80;-0.50;101187.00;;;;4891894;28;88340;-61
2022/03/18 07:28:40;;;;;;;11.80;5.80;;;0.00;67.50;-0.50;101174.00;;;;4893019;28;88012;-61
2022/03/18 07:31:06;;;;;;;14.30;5.82;;;0.00;66.90;-0.40;101177.00;;;;4894057;28;87066;-62
2022/03/18 07:33:32;;;;;;;15.43;6.47;;;0.00;67.00;-0.40;101174.00;;;;4879785;28;89464;-62
2022/03/18 07:35:58;;;;;;;12.48;5.95;;;0.10;67.20;-0.40;101167.00;;;;4889050;28;87562;-62
2022/03/18 07:38:25;;;;;;;9.82;4.95;;;0.00;67.20;-0.30;101183.00;;;;4892173;28;87379;-62
2022/03/18 07:40:51;;;;;;;13.38;5.40;;;0.10;66.50;-0.20;101176.00;;;;4894685;28;87231;-62
2022/03/18 07:43:17;;;;;;;14.93;5.70;;;0.20;66.60;-0.20;101179.00;;;;4899533;28;87384;-63
2022/03/18 07:45:43;;;;;;;12.00;5.07;;;0.30;66.80;-0.10;101164.00;;;;4890324;28;87265;-61
2022/03/18 07:48:10;;;;;;;12.55;5.03;;;0.30;66.30;-0.10;101164.00;;;;4892600;28;87992;-61
2022/03/18 07:50:41;;;;;;;13.88;6.10;;;0.30;66.40;-0.20;101165.00;;;;4897530;28;87067;-62
2022/03/18 07:53:09;;;;;;;10.10;5.60;;;0.20;66.60;0.00;101156.00;;;;4888234;28;88663;-62
2022/03/18 07:55:38;;;;;;;9.90;5.60;;;0.40;66.80;-0.10;101150.00;;;;4895336;28;89534;-61
2022/03/18 07:58:06;;;;;;;9.75;5.75;;;0.40;66.40;0.00;101157.00;;;;4896899;28;87264;-60
2022/03/18 08:00:32;;;;;;;13.07;5.75;;;0.40;66.80;0.00;101149.00;;;;4894674;28;87121;-61
2022/03/18 08:03:01;;;;;;;11.02;5.22;;;0.40;66.70;0.10;101162.00;;;;4891447;28;87884;-62
2022/03/18 08:05:27;;;;;;;14.05;5.45;;;0.50;66.90;0.10;101155.00;;;;4893489;28;88822;-62
2022/03/18 08:07:53;;;;;;;14.38;5.70;;;0.50;66.40;0.10;101162.00;;;;4897287;28;87825;-62
2022/03/18 08:10:20;;;;;;;12.25;5.40;;;0.50;66.60;0.10;101157.00;;;;4894453;28;86938;-62
2022/03/18 08:12:46;;;;;;;11.77;4.70;;;0.50;66.70;0.10;101164.00;;;;4894605;28;87710;-61
2022/03/18 08:15:15;;;;;;;12.73;5.45;;;0.50;66.70;0.10;101160.00;;;;4883841;28;87412;-61
2022/03/18 08:17:43;;;;;;;11.77;5.85;;;0.50;66.10;0.20;101153.00;;;;4899085;28;88177;-61
2022/03/18 08:20:13;;;;;;;14.73;5.78;;;0.60;67.00;0.40;101157.00;;;;4892356;28;87110;-62
2022/03/18 08:22:41;;;;;;;10.13;5.22;;;0.80;67.10;0.50;101161.00;;;;4901579;28;87630;-62
2022/03/18 08:25:09;;;;;;;12.73;5.63;;;0.90;65.90;0.50;101158.00;;;;4897417;28;88701;-63
2022/03/18 08:27:36;;;;;;;9.38;5.38;;;0.90;65.10;0.50;101152.00;;;;4891761;28;87525;-62
2022/03/18 08:30:06;;;;;;;11.25;5.38;;;0.90;65.10;0.60;101156.00;;;;4895793;28;87162;-63
2022/03/18 08:32:34;;;;;;;12.70;5.40;;;0.90;65.00;0.60;101150.00;;;;4896916;28;87675;-62
2022/03/18 08:35:01;;;;;;;10.00;5.13;;;0.90;64.40;0.60;101161.00;;;;4882107;28;87407;-62
2022/03/18 08:40:13;;;;;;;14.13;5.57;;;1.00;64.70;0.70;101159.00;;;;4888484;28;87982;-62
2022/03/18 08:42:40;;;;;;;9.73;5.50;;;1.00;64.30;0.70;101157.00;;;;4888106;28;88649;-61
2022/03/18 08:45:08;;;;;;;11.57;5.50;;;1.10;64.50;0.80;101171.00;;;;4896262;28;88136;-62
2022/03/18 08:47:34;;;;;;;11.55;4.78;;;1.20;64.80;0.90;101146.00;;;;4893256;28;87054;-62
2022/03/18 08:50:00;;;;;;;13.23;5.93;;;1.40;65.30;1.00;101158.00;;;;4897619;28;87213;-62
2022/03/18 08:52:27;;;;;;;11.38;5.57;;;1.40;65.20;1.10;101161.00;;;;4897235;28;87593;-62
2022/03/18 08:54:53;;;;;;;8.90;5.32;;;1.40;64.90;1.20;101149.00;;;;4899274;28;87337;-62
2022/03/18 08:57:19;;;;;;;9.90;5.20;;;1.50;63.80;1.20;101158.00;;;;4898508;28;87148;-62
2022/03/18 08:59:45;;;;;;;11.57;5.50;;;1.60;63.90;1.30;101154.00;;;;4882212;28;86278;-62
2022/03/18 09:02:12;;;;;;;11.23;5.75;;;1.70;64.00;1.40;101157.00;;;;4891144;28;88834;-61
2022/03/18 09:04:38;;;;;;;12.95;5.30;;;1.80;63.90;1.40;101159.00;;;;4882817;28;88712;-62
2022/03/18 09:07:04;;;;;;;7.43;4.75;;;1.70;62.80;1.30;101151.00;;;;4885428;28;87833;-61
2022/03/18 09:09:30;;;;;;;14.60;4.72;;;1.70;61.70;1.40;101150.00;;;;4891392;28;87167;-61
2022/03/18 09:11:57;;;;;;;11.65;4.65;;;1.70;62.10;1.50;101152.00;;;;4882928;28;90139;-62
2022/03/18 09:14:23;;;;;;;8.35;4.72;;;1.90;62.60;1.60;101146.00;;;;4893320;28;87439;-62
2022/03/18 09:16:49;;;;;;;13.38;4.60;;;1.90;62.60;1.60;101144.00;;;;4892329;28;87025;-62
2022/03/18 09:19:16;;;;;;;6.78;3.88;;;1.90;61.10;1.70;101145.00;;;;4888273;28;87115;-62
2022/03/18 09:21:42;;;;;;;8.70;4.25;;;2.00;61.60;1.80;101140.00;;;;4885447;28;87611;-62
2022/03/18 09:24:09;;;;;;;8.43;4.25;;;2.10;62.10;1.80;101146.00;;;;4895528;28;87232;-62
2022/03/18 09:26:35;;;;;;;9.43;4.35;;;2.10;60.40;1.80;101142.00;;;;4891520;28;87269;-62
2022/03/18 09:29:01;;;;;;;8.07;4.00;;;2.20;60.20;2.00;101134.00;;;;4902573;28;87123;-61
2022/03/18 09:31:27;;;;;;;10.48;3.92;;;2.30;60.30;2.00;101157.00;;;;4903891;28;89753;-62
2022/03/18 09:33:53;;;;;;;7.30;3.83;;;2.40;61.00;2.10;101142.00;;;;4896784;28;88271;-62
2022/03/18 09:36:20;;;;;;;12.07;3.95;;;2.40;59.70;2.00;101125.00;;;;4892592;28;86941;-61
2022/03/18 09:38:48;;;;;;;8.90;3.50;;;2.40;59.20;2.10;101128.00;;;;4898753;28;87551;-62
2022/03/18 09:41:16;;;;;;;7.22;4.53;;;2.40;58.00;2.10;101133.00;;;;4897808;28;86915;-62
2022/03/18 09:43:43;;;;;;;9.93;4.28;;;2.40;58.30;2.00;101128.00;;;;4884380;28;89804;-62
2022/03/18 09:46:13;;;;;;;7.65;4.03;;;2.30;57.90;2.20;101128.00;;;;4892197;28;87113;-62
2022/03/18 09:48:40;;;;;;;8.52;4.05;;;2.50;58.20;2.20;101131.00;;;;4891093;28;86316;-61
2022/03/18 09:51:08;;;;;;;6.93;3.90;;;2.40;57.40;2.10;101134.00;;;;4888948;28;88721;-62
2022/03/18 09:53:35;;;;;;;5.45;3.40;;;2.40;57.10;2.00;101127.00;;;;4900095;28;87527;-62
2022/03/18 09:56:03;;;;;;;11.35;4.05;;;2.30;57.10;2.10;101120.00;;;;4901692;28;88089;-61
2022/03/18 09:58:30;;;;;;;7.30;3.88;;;2.40;57.70;2.10;101127.00;;;;4875213;28;87562;-62
2022/03/18 10:00:58;;;;;;;7.15;3.60;;;2.40;57.50;2.20;101116.00;;;;4888010;28;88710;-62
2022/03/18 10:03:39;;;;;;;8.18;3.38;;;2.50;58.00;2.30;101107.00;;;;4887299;28;88427;-61
2022/03/18 10:06:07;;;;;;;10.25;3.95;;;2.60;57.80;2.30;101113.00;;;;4883748;28;87322;-63
2022/03/18 10:08:39;;;;;;;9.52;3.20;;;2.60;57.10;2.30;101110.00;;;;4903993;28;87323;-62
2022/03/18 10:11:20;;;;;;;13.05;4.15;;;2.60;58.20;2.40;101101.00;;;;4901928;28;88669;-63
2022/03/18 10:13:54;;;;;;;7.07;3.40;;;2.70;57.30;2.50;101103.00;;;;4879412;28;87181;-61
2022/03/18 10:16:45;;;;;;;9.23;4.00;;;2.70;57.90;2.60;101115.00;;;;4895631;28;86997;-61
2022/03/18 10:19:16;;;;;;;6.53;3.57;;;2.80;57.80;2.60;101102.00;;;;4880379;28;87171;-61
2022/03/18 10:22:01;;;;;;;12.70;4.43;;;2.90;57.70;2.60;101108.00;;;;4871529;28;91163;-61
2022/03/18 10:24:31;;;;;;;6.53;3.75;;;2.90;57.40;2.60;101100.00;;;;4873770;28;90886;-62
2022/03/18 10:27:19;;;;;;;10.43;3.72;;;2.80;55.90;2.50;101095.00;;;;4897501;28;87220;-62
2022/03/18 10:29:54;;;;;;;8.88;3.90;;;2.80;56.00;2.60;101099.00;;;;4894827;28;87008;-63
2022/03/18 10:32:31;;;;;;;9.23;3.70;;;2.80;57.40;2.70;101090.00;;;;4884385;28;87134;-63
2022/03/18 10:37:49;;;;;;;11.77;3.72;;;2.90;56.60;2.70;101078.00;;;;4888068;28;87058;-62
2022/03/18 10:40:37;;;;;;;10.73;3.92;;;3.00;57.20;2.60;101096.00;;;;4890099;28;87324;-62
2022/03/18 10:43:06;;;;;;;5.97;3.85;;;2.90;56.50;2.70;101080.00;;;;4891992;28;87626;-62
2022/03/18 10:45:33;;;;;;;6.75;3.55;;;3.00;56.30;2.70;101077.00;;;;4897297;28;87302;-62
2022/03/18 10:48:17;;;;;;;9.45;3.47;;;3.00;56.30;2.70;101090.00;;;;4889810;28;88550;-62
2022/03/18 10:50:45;;;;;;;6.15;3.33;;;3.00;56.30;2.80;101081.00;;;;4889320;28;89868;-62
2022/03/18 10:53:12;;;;;;;7.88;3.53;;;3.00;55.40;2.80;101072.00;;;;4889804;28;87870;-62
2022/03/18 10:55:43;;;;;;;6.75;3.80;;;3.00;55.20;2.90;101068.00;;;;4888954;28;88249;-62
2022/03/18 10:58:19;;;;;;;8.05;3.60;;;3.10;55.90;2.90;101073.00;;;;4890359;28;87343;-62
2022/03/18 11:00:49;;;;;;;10.20;4.32;;;3.20;56.30;2.90;101083.00;;;;4884153;28;87054;-62
2022/03/18 11:03:15;;;;;;;8.05;3.63;;;3.20;56.00;3.00;101065.00;;;;4891905;28;88736;-62
2022/03/18 11:05:46;;;;;;;7.32;3.10;;;3.30;56.20;3.00;101073.00;;;;4892824;28;88415;-62
2022/03/18 11:08:16;;;;;;;5.23;3.30;;;3.30;55.50;3.10;101067.00;;;;4885155;28;87269;-61
2022/03/18 11:11:10;;;;;;;6.10;3.35;;;3.30;55.70;3.00;101066.00;;;;4879290;28;87227;-62